Time;durP1;ratioP1;P1;durP2;ratioP2;P2;SDS_P1;SDS_P2;PMS_P1;PMS_P2;Temp;Humidity;BMP_temperature;BMP_pressure;BME280_temperature;BME280_humidity;BME280_pressure;Samples;Min_cycle;Max_cycle;Signal;HPM_P1;HPM_P2
2021/07/27 00:01:50;;;;;;;0.70;0.70;;;;;;;;;;6292698;22;20262;-87
2021/07/27 00:04:57;;;;;;;1.25;0.63;;;;;;;;;;6291061;22;20166;-88
2021/07/27 00:08:02;;;;;;;0.73;0.63;;;;;;;;;;6292078;22;20668;-87
2021/07/27 00:11:08;;;;;;;0.57;0.57;;;;;;;;;;6291580;22;20182;-89
2021/07/27 00:14:13;;;;;;;0.40;0.40;;;;;;;;;;6292040;22;20197;-89
2021/07/27 00:17:18;;;;;;;0.73;0.73;;;;;;;;;;6274653;22;20169;-90
2021/07/27 00:20:25;;;;;;;1.73;0.73;;;;;;;;;;6292810;22;20253;-89
2021/07/27 00:23:30;;;;;;;0.60;0.60;;;;;;;;;;6291048;22;20204;-89
2021/07/27 00:26:35;;;;;;;0.55;0.55;;;;;;;;;;6292528;22;20204;-89
2021/07/27 00:29:41;;;;;;;0.25;0.25;;;;;;;;;;6274069;22;20165;-88
2021/07/27 00:32:46;;;;;;;0.30;0.30;;;;;;;;;;6273044;22;20166;-88
2021/07/27 00:35:53;;;;;;;0.57;0.57;;;;;;;;;;6290268;22;20624;-88
2021/07/27 00:38:58;;;;;;;0.47;0.47;;;;;;;;;;6287960;22;20178;-88
2021/07/27 00:42:03;;;;;;;0.47;0.47;;;;;;;;;;6289998;22;20173;-89
2021/07/27 00:45:09;;;;;;;5.35;0.93;;;;;;;;;;6289625;22;20153;-89
2021/07/27 00:48:13;;;;;;;0.80;0.65;;;;;;;;;;6289348;22;20244;-88
2021/07/27 00:51:20;;;;;;;1.05;0.82;;;;;;;;;;6288751;22;20732;-89
2021/07/27 00:54:25;;;;;;;0.68;0.57;;;;;;;;;;6290855;22;20597;-87
2021/07/27 00:57:31;;;;;;;1.48;0.90;;;;;;;;;;6289098;22;20212;-86
2021/07/27 01:00:36;;;;;;;4.47;1.02;;;;;;;;;;6288885;22;20287;-88
2021/07/27 01:03:41;;;;;;;0.38;0.38;;;;;;;;;;6271144;22;20165;-90
2021/07/27 01:06:48;;;;;;;0.55;0.55;;;;;;;;;;6288536;22;20169;-87
2021/07/27 01:09:52;;;;;;;0.30;0.30;;;;;;;;;;6288708;22;20173;-88
2021/07/27 01:12:58;;;;;;;0.98;0.75;;;;;;;;;;6286759;22;20174;-87
2021/07/27 01:16:06;;;;;;;0.70;0.70;;;;;;;;;;6287861;22;20505;-90
2021/07/27 01:19:23;;;;;;;0.60;0.60;;;;;;;;;;6287250;22;20165;-89
2021/07/27 01:39:27;;;;;;;0.80;0.63;;;;;;;;;;6287806;22;20204;-88
2021/07/27 01:42:39;;;;;;;1.15;1.05;;;;;;;;;;6287476;22;20684;-91
2021/07/27 01:45:43;;;;;;;0.40;0.40;;;;;;;;;;6269058;22;20279;-90
2021/07/27 01:48:49;;;;;;;0.52;0.52;;;;;;;;;;6269876;22;20173;-88
2021/07/27 01:51:54;;;;;;;0.55;0.55;;;;;;;;;;6285899;22;20170;-89
2021/07/27 01:55:07;;;;;;;1.30;0.82;;;;;;;;;;6287631;22;20150;-89
2021/07/27 01:58:13;;;;;;;1.58;1.25;;;;;;;;;;6288700;22;20224;-87
2021/07/27 02:01:20;;;;;;;3.70;1.98;;;;;;;;;;6286834;22;20331;-90
2021/07/27 02:04:26;;;;;;;2.35;1.65;;;;;;;;;;6268819;22;20263;-89
2021/07/27 02:07:30;;;;;;;1.63;1.52;;;;;;;;;;6286334;22;20595;-89
2021/07/27 02:10:38;;;;;;;0.70;0.70;;;;;;;;;;6270102;22;20161;-88
2021/07/27 02:13:48;;;;;;;1.30;1.20;;;;;;;;;;6285661;22;20608;-89
2021/07/27 02:16:52;;;;;;;1.20;1.10;;;;;;;;;;6269280;22;20261;-89
2021/07/27 02:19:57;;;;;;;2.25;1.20;;;;;;;;;;6286753;22;20192;-87
2021/07/27 02:23:03;;;;;;;1.33;1.20;;;;;;;;;;6268843;22;20165;-88
2021/07/27 02:26:10;;;;;;;4.90;1.10;;;;;;;;;;6286287;22;20180;-88
2021/07/27 02:29:15;;;;;;;1.00;0.95;;;;;;;;;;6286171;22;20169;-87
2021/07/27 02:32:21;;;;;;;1.17;1.08;;;;;;;;;;6287585;22;20218;-89
2021/07/27 02:35:25;;;;;;;5.18;1.88;;;;;;;;;;6287379;22;20165;-88
2021/07/27 02:38:31;;;;;;;0.60;0.60;;;;;;;;;;6286210;22;20165;-88
2021/07/27 02:41:38;;;;;;;1.05;1.05;;;;;;;;;;6286604;22;20189;-86
2021/07/27 02:44:44;;;;;;;1.17;1.08;;;;;;;;;;6286293;22;20162;-89
2021/07/27 02:47:48;;;;;;;2.17;1.33;;;;;;;;;;6286958;22;20170;-88
2021/07/27 02:51:07;;;;;;;1.52;1.40;;;;;;;;;;6268383;22;20170;-88
2021/07/27 02:54:12;;;;;;;4.78;1.33;;;;;;;;;;6287402;22;20286;-90
2021/07/27 02:57:22;;;;;;;0.93;0.93;;;;;;;;;;6286085;22;20165;-89
2021/07/27 03:00:28;;;;;;;0.68;0.63;;;;;;;;;;6268905;22;20250;-88
2021/07/27 03:03:32;;;;;;;0.90;0.90;;;;;;;;;;6286741;22;20185;-89
2021/07/27 03:06:37;;;;;;;1.55;1.23;;;;;;;;;;6285750;22;20223;-88
2021/07/27 03:10:17;;;;;;;0.77;0.77;;;;;;;;;;6284850;22;20165;-89
2021/07/27 03:13:12;;;;;;;0.88;0.88;;;;;;;;;;6286495;22;20189;-87
2021/07/27 03:16:17;;;;;;;5.20;1.58;;;;;;;;;;6286442;22;20166;-88
2021/07/27 03:19:23;;;;;;;0.95;0.95;;;;;;;;;;6269499;22;20166;-88
2021/07/27 03:22:28;;;;;;;3.65;1.70;;;;;;;;;;6286164;22;20169;-88
2021/07/27 03:25:33;;;;;;;0.52;0.52;;;;;;;;;;6287361;22;20281;-87
2021/07/27 03:28:40;;;;;;;1.08;1.02;;;;;;;;;;6287070;22;20242;-89
2021/07/27 03:31:45;;;;;;;1.65;0.98;;;;;;;;;;6286905;22;20166;-87
2021/07/27 03:34:50;;;;;;;2.50;1.15;;;;;;;;;;6286539;22;20182;-89
2021/07/27 03:37:55;;;;;;;1.33;1.23;;;;;;;;;;6286691;22;20162;-89
2021/07/27 03:41:04;;;;;;;1.65;1.15;;;;;;;;;;6269000;22;20313;-89
2021/07/27 03:44:10;;;;;;;0.70;0.70;;;;;;;;;;6286653;22;20178;-87
2021/07/27 03:47:15;;;;;;;0.70;0.70;;;;;;;;;;6285842;22;20169;-91
2021/07/27 03:50:20;;;;;;;4.32;1.13;;;;;;;;;;6287383;22;20208;-88
2021/07/27 03:53:25;;;;;;;0.90;0.90;;;;;;;;;;6287357;22;20177;-89
2021/07/27 03:56:30;;;;;;;0.57;0.57;;;;;;;;;;6285906;22;20216;-88
2021/07/27 03:59:36;;;;;;;1.13;0.95;;;;;;;;;;6285428;22;20212;-88
2021/07/27 04:06:18;;;;;;;1.15;1.02;;;;;;;;;;6287638;22;20202;-89
2021/07/27 04:09:24;;;;;;;2.65;1.70;;;;;;;;;;6287940;22;20289;-89
2021/07/27 04:12:29;;;;;;;1.08;1.05;;;;;;;;;;6288205;22;20220;-89
2021/07/27 04:15:44;;;;;;;1.02;0.73;;;;;;;;;;6270741;22;20177;-89
2021/07/27 04:18:49;;;;;;;3.10;1.17;;;;;;;;;;6286142;22;20165;-89
2021/07/27 04:21:54;;;;;;;2.28;1.08;;;;;;;;;;6288325;22;20185;-90
2021/07/27 04:24:59;;;;;;;0.88;0.88;;;;;;;;;;6270923;22;20193;-89
2021/07/27 04:28:05;;;;;;;1.40;1.30;;;;;;;;;;6288902;22;20161;-90
2021/07/27 04:31:11;;;;;;;2.45;1.08;;;;;;;;;;6271720;22;20213;-91
2021/07/27 04:34:17;;;;;;;2.95;1.48;;;;;;;;;;6290739;22;20157;-90
2021/07/27 04:37:22;;;;;;;1.08;1.00;;;;;;;;;;6290671;22;20205;-91
2021/07/27 04:40:27;;;;;;;0.93;0.93;;;;;;;;;;6290006;22;20193;-90
2021/07/27 04:43:32;;;;;;;2.40;1.10;;;;;;;;;;6289763;22;20170;-92
2021/07/27 04:46:39;;;;;;;0.70;0.70;;;;;;;;;;6289596;22;20162;-90
2021/07/27 04:49:44;;;;;;;1.52;0.93;;;;;;;;;;6289701;22;20607;-91
2021/07/27 04:52:52;;;;;;;1.08;1.08;;;;;;;;;;6291406;22;20181;-91
2021/07/27 04:56:00;;;;;;;2.80;1.40;;;;;;;;;;6287416;22;20397;-90
2021/07/27 04:59:04;;;;;;;0.93;0.93;;;;;;;;;;6288716;22;20170;-89
2021/07/27 05:02:12;;;;;;;0.73;0.73;;;;;;;;;;6291282;22;20221;-90
2021/07/27 05:05:18;;;;;;;1.48;1.38;;;;;;;;;;6293309;22;20161;-90
2021/07/27 05:08:23;;;;;;;1.55;1.45;;;;;;;;;;6289222;22;20174;-88
2021/07/27 05:11:28;;;;;;;0.93;0.63;;;;;;;;;;6288393;22;20171;-89
2021/07/27 05:14:33;;;;;;;0.68;0.68;;;;;;;;;;6290590;22;20170;-90
2021/07/27 05:17:40;;;;;;;0.50;0.50;;;;;;;;;;6289713;22;20208;-91
2021/07/27 05:20:50;;;;;;;1.85;1.23;;;;;;;;;;6295077;22;20189;-88
2021/07/27 05:23:56;;;;;;;1.92;1.05;;;;;;;;;;6291032;22;20178;-87
2021/07/27 05:27:05;;;;;;;0.95;0.95;;;;;;;;;;6271664;22;20181;-89
2021/07/27 05:30:12;;;;;;;3.40;1.45;;;;;;;;;;6272001;22;20613;-89
2021/07/27 05:33:19;;;;;;;1.75;1.05;;;;;;;;;;6290716;22;20240;-90
2021/07/27 05:36:24;;;;;;;2.33;1.17;;;;;;;;;;6273478;22;20206;-89
2021/07/27 05:39:29;;;;;;;1.48;1.33;;;;;;;;;;6292554;22;20176;-88
2021/07/27 05:42:35;;;;;;;1.60;1.17;;;;;;;;;;6275915;22;20264;-88
2021/07/27 05:45:41;;;;;;;1.02;0.98;;;;;;;;;;6274260;22;20243;-87
2021/07/27 05:48:52;;;;;;;0.95;0.95;;;;;;;;;;6272155;22;20177;-90
2021/07/27 05:51:59;;;;;;;0.82;0.80;;;;;;;;;;6290567;22;20150;-89
2021/07/27 05:55:05;;;;;;;12.07;7.03;;;;;;;;;;6288337;22;20292;-89
2021/07/27 05:58:10;;;;;;;13.65;7.32;;;;;;;;;;6271052;22;20166;-88
2021/07/27 06:01:15;;;;;;;12.07;7.13;;;;;;;;;;6292209;22;20273;-90
2021/07/27 06:04:21;;;;;;;12.18;7.50;;;;;;;;;;6290014;22;20169;-89
2021/07/27 06:07:29;;;;;;;15.07;8.30;;;;;;;;;;6293184;22;20165;-90
2021/07/27 06:10:34;;;;;;;13.73;7.90;;;;;;;;;;6294824;22;20173;-87
2021/07/27 06:13:43;;;;;;;13.63;8.80;;;;;;;;;;6295040;22;20748;-88
2021/07/27 06:16:49;;;;;;;16.73;8.10;;;;;;;;;;6294110;22;20289;-87
2021/07/27 06:19:56;;;;;;;15.90;8.70;;;;;;;;;;6273527;22;20256;-89
2021/07/27 06:23:01;;;;;;;17.02;8.50;;;;;;;;;;6290625;22;20244;-88
2021/07/27 06:26:06;;;;;;;14.43;8.35;;;;;;;;;;6291530;22;20170;-87
2021/07/27 06:29:12;;;;;;;14.55;8.20;;;;;;;;;;6271068;22;20217;-89
2021/07/27 06:32:40;;;;;;;14.82;8.02;;;;;;;;;;6290923;22;20173;-89
2021/07/27 06:35:46;;;;;;;12.70;8.20;;;;;;;;;;6274050;22;20198;-88
2021/07/27 06:38:51;;;;;;;14.90;8.57;;;;;;;;;;6292438;22;20149;-90
2021/07/27 06:41:56;;;;;;;14.65;10.00;;;;;;;;;;6290706;22;20183;-89
2021/07/27 06:45:01;;;;;;;14.10;8.15;;;;;;;;;;6274423;22;20165;-88
2021/07/27 06:48:06;;;;;;;13.18;8.57;;;;;;;;;;6292385;22;20216;-89
2021/07/27 06:51:14;;;;;;;12.23;7.65;;;;;;;;;;6292141;22;20173;-90
2021/07/27 06:54:20;;;;;;;14.52;7.70;;;;;;;;;;6291776;22;20263;-89
2021/07/27 06:57:25;;;;;;;13.60;7.65;;;;;;;;;;6291910;22;20173;-88
2021/07/27 07:00:33;;;;;;;12.73;7.05;;;;;;;;;;6274086;22;20166;-91
2021/07/27 07:03:39;;;;;;;10.98;6.75;;;;;;;;;;6289909;22;20169;-90
2021/07/27 07:06:46;;;;;;;11.75;7.15;;;;;;;;;;6291372;22;20185;-89
2021/07/27 07:09:55;;;;;;;11.60;5.97;;;;;;;;;;6272027;22;20490;-88
2021/07/27 07:13:00;;;;;;;8.13;5.75;;;;;;;;;;6276434;22;20174;-88
2021/07/27 07:16:08;;;;;;;10.07;5.60;;;;;;;;;;6291774;22;20197;-91
2021/07/27 07:19:14;;;;;;;9.10;5.50;;;;;;;;;;6294180;22;20154;-89
2021/07/27 07:22:21;;;;;;;8.15;5.30;;;;;;;;;;6292683;22;20189;-89
2021/07/27 07:25:26;;;;;;;14.70;5.25;;;;;;;;;;6290388;22;20256;-90
2021/07/27 07:28:32;;;;;;;9.00;4.53;;;;;;;;;;6273599;22;20226;-90
2021/07/27 07:31:38;;;;;;;11.65;5.22;;;;;;;;;;6292820;22;20166;-88
2021/07/27 07:34:43;;;;;;;14.70;5.55;;;;;;;;;;6295794;22;20157;-89
2021/07/27 07:37:49;;;;;;;9.45;5.07;;;;;;;;;;6293537;22;20211;-88
2021/07/27 07:41:07;;;;;;;9.15;5.57;;;;;;;;;;6294499;22;20165;-89
2021/07/27 07:44:12;;;;;;;7.35;4.70;;;;;;;;;;6276596;22;20209;-90
2021/07/27 07:47:17;;;;;;;7.43;5.00;;;;;;;;;;6295220;22;20190;-90
2021/07/27 07:50:22;;;;;;;8.30;4.35;;;;;;;;;;6277398;22;20158;-90
2021/07/27 07:53:29;;;;;;;9.23;5.13;;;;;;;;;;6275076;22;20240;-90
2021/07/27 07:56:34;;;;;;;9.15;4.55;;;;;;;;;;6293152;22;20210;-89
2021/07/27 07:59:39;;;;;;;8.50;5.05;;;;;;;;;;6296050;22;20157;-89
2021/07/27 08:02:47;;;;;;;8.88;4.95;;;;;;;;;;6280758;22;20257;-89
2021/07/27 08:05:52;;;;;;;6.32;4.20;;;;;;;;;;6298778;22;20649;-91
2021/07/27 08:09:00;;;;;;;7.80;4.53;;;;;;;;;;6298925;22;20181;-89
2021/07/27 08:12:05;;;;;;;8.27;4.70;;;;;;;;;;6278875;22;20177;-90
2021/07/27 08:15:11;;;;;;;8.65;4.55;;;;;;;;;;6296701;22;20146;-90
2021/07/27 08:18:16;;;;;;;8.90;4.68;;;;;;;;;;6261628;22;20170;-90
2021/07/27 08:21:23;;;;;;;8.60;4.28;;;;;;;;;;6296997;22;20197;-89
2021/07/27 08:24:32;;;;;;;5.72;4.22;;;;;;;;;;6295243;22;20237;-89
2021/07/27 08:27:37;;;;;;;7.18;3.70;;;;;;;;;;6297365;22;20197;-89
2021/07/27 08:30:43;;;;;;;5.30;3.92;;;;;;;;;;6294975;22;20165;-89
2021/07/27 08:33:48;;;;;;;10.35;4.60;;;;;;;;;;6295474;22;20231;-90
2021/07/27 08:36:54;;;;;;;5.85;3.50;;;;;;;;;;6297510;22;20174;-91
2021/07/27 08:40:01;;;;;;;8.05;3.63;;;;;;;;;;6296545;22;20290;-89
2021/07/27 08:43:06;;;;;;;8.77;4.20;;;;;;;;;;6294316;22;20687;-91
2021/07/27 08:46:16;;;;;;;5.13;3.63;;;;;;;;;;6275412;22;20156;-90
2021/07/27 08:49:22;;;;;;;4.18;3.00;;;;;;;;;;6293742;22;20173;-90
2021/07/27 08:52:27;;;;;;;5.05;3.22;;;;;;;;;;6294523;22;20169;-91
2021/07/27 08:55:34;;;;;;;4.35;3.35;;;;;;;;;;6294756;22;20162;-90
2021/07/27 08:58:38;;;;;;;5.95;2.88;;;;;;;;;;6275745;22;20214;-89
2021/07/27 09:01:44;;;;;;;6.28;3.00;;;;;;;;;;6294154;22;20251;-88
2021/07/27 09:04:49;;;;;;;5.88;2.90;;;;;;;;;;6295533;22;20209;-89
2021/07/27 09:08:03;;;;;;;6.32;2.80;;;;;;;;;;6296153;22;20197;-89
2021/07/27 09:11:12;;;;;;;7.15;2.78;;;;;;;;;;6296534;22;20185;-89
2021/07/27 09:14:18;;;;;;;8.40;2.85;;;;;;;;;;6295562;22;20486;-92
2021/07/27 09:17:26;;;;;;;7.88;3.63;;;;;;;;;;6293214;22;20233;-91
2021/07/27 09:20:33;;;;;;;3.75;2.67;;;;;;;;;;6295466;22;20156;-90
2021/07/27 09:23:41;;;;;;;4.72;2.55;;;;;;;;;;6296987;22;20173;-90
2021/07/27 09:26:57;;;;;;;5.28;2.85;;;;;;;;;;6293219;22;20263;-92
2021/07/27 09:30:02;;;;;;;5.47;2.53;;;;;;;;;;6294296;22;20170;-87
2021/07/27 09:33:08;;;;;;;4.13;2.60;;;;;;;;;;6273235;22;20165;-91
2021/07/27 09:36:26;;;;;;;4.68;2.53;;;;;;;;;;6301826;22;20165;-89
2021/07/27 09:39:32;;;;;;;4.93;2.55;;;;;;;;;;6275608;22;20208;-90
2021/07/27 09:42:40;;;;;;;5.88;2.83;;;;;;;;;;6277419;22;20571;-89
2021/07/27 09:45:47;;;;;;;6.70;2.90;;;;;;;;;;6292260;22;20165;-89
2021/07/27 09:48:53;;;;;;;4.10;3.17;;;;;;;;;;6275641;22;20165;-88
2021/07/27 09:51:59;;;;;;;4.65;2.85;;;;;;;;;;6291661;22;20169;-89
2021/07/27 09:55:05;;;;;;;8.27;3.22;;;;;;;;;;6273517;22;20253;-89
2021/07/27 09:58:13;;;;;;;5.35;2.97;;;;;;;;;;6290733;22;20169;-89
2021/07/27 10:01:20;;;;;;;4.05;2.85;;;;;;;;;;6272166;22;20263;-89
2021/07/27 10:04:27;;;;;;;4.80;2.78;;;;;;;;;;6288217;22;20192;-88
2021/07/27 10:07:33;;;;;;;5.20;2.85;;;;;;;;;;6268739;22;20169;-88
2021/07/27 10:10:39;;;;;;;4.72;3.00;;;;;;;;;;6287807;22;20169;-88
2021/07/27 10:13:48;;;;;;;4.35;2.90;;;;;;;;;;6268398;22;20243;-90
2021/07/27 10:17:02;;;;;;;5.10;3.17;;;;;;;;;;6287952;22;20190;-90
2021/07/27 10:20:09;;;;;;;5.22;2.80;;;;;;;;;;6270422;22;20224;-90
2021/07/27 10:23:22;;;;;;;4.57;2.80;;;;;;;;;;6292331;22;20211;-88
2021/07/27 10:26:28;;;;;;;5.38;2.70;;;;;;;;;;6273465;22;20240;-88
2021/07/27 10:29:39;;;;;;;6.95;3.20;;;;;;;;;;6275240;22;20168;-89
2021/07/27 10:32:55;;;;;;;9.82;2.60;;;;;;;;;;6272744;22;20216;-89
2021/07/27 10:36:01;;;;;;;4.43;2.72;;;;;;;;;;6293431;22;20161;-91
2021/07/27 10:39:08;;;;;;;3.30;2.58;;;;;;;;;;6292998;22;20173;-90
2021/07/27 10:42:14;;;;;;;4.63;2.85;;;;;;;;;;6293010;22;20173;-92
2021/07/27 10:48:55;;;;;;;6.60;2.80;;;;;;;;;;6292301;22;20161;-88
2021/07/27 10:52:02;;;;;;;4.50;2.90;;;;;;;;;;6293437;22;20227;-90
2021/07/27 10:55:09;;;;;;;5.38;3.05;;;;;;;;;;6290406;22;20169;-89
2021/07/27 10:58:17;;;;;;;3.80;2.63;;;;;;;;;;6273219;22;20169;-87
2021/07/27 11:01:23;;;;;;;3.92;2.47;;;;;;;;;;6288786;22;20235;-88
2021/07/27 11:04:31;;;;;;;4.45;2.83;;;;;;;;;;6287821;22;20188;-87
2021/07/27 11:07:37;;;;;;;3.75;2.63;;;;;;;;;;6272124;22;20169;-89
2021/07/27 11:10:42;;;;;;;5.40;2.80;;;;;;;;;;6288599;22;20266;-90
2021/07/27 11:13:53;;;;;;;3.10;2.38;;;;;;;;;;6288841;22;20162;-89
2021/07/27 11:16:59;;;;;;;4.97;2.83;;;;;;;;;;6271509;22;20502;-90
2021/07/27 11:20:07;;;;;;;5.00;2.70;;;;;;;;;;6290739;22;20169;-88
2021/07/27 11:23:16;;;;;;;3.55;2.50;;;;;;;;;;6273320;22;20203;-88
2021/07/27 11:26:21;;;;;;;9.02;3.03;;;;;;;;;;6292331;22;20663;-90
2021/07/27 11:29:27;;;;;;;3.78;2.60;;;;;;;;;;6289761;22;20181;-89
2021/07/27 11:32:39;;;;;;;5.00;2.70;;;;;;;;;;6271681;22;20168;-91
2021/07/27 11:35:49;;;;;;;3.78;2.30;;;;;;;;;;6290661;22;20165;-90
2021/07/27 11:39:05;;;;;;;3.97;2.60;;;;;;;;;;6292098;22;20243;-90
2021/07/27 11:42:10;;;;;;;4.82;2.50;;;;;;;;;;6290132;22;20190;-90
2021/07/27 11:45:24;;;;;;;5.28;2.53;;;;;;;;;;6289579;22;20666;-90
2021/07/27 11:48:34;;;;;;;4.68;2.60;;;;;;;;;;6271477;22;20157;-89
2021/07/27 11:51:41;;;;;;;3.22;2.50;;;;;;;;;;6289439;22;20161;-90
2021/07/27 11:54:46;;;;;;;5.30;2.80;;;;;;;;;;6289184;22;20232;-90
2021/07/27 11:57:51;;;;;;;4.97;2.70;;;;;;;;;;6290481;22;20218;-91
2021/07/27 12:00:57;;;;;;;4.80;2.40;;;;;;;;;;6291704;22;20231;-89
2021/07/27 12:04:02;;;;;;;4.25;2.80;;;;;;;;;;6287951;22;20192;-90
2021/07/27 12:07:09;;;;;;;4.50;2.83;;;;;;;;;;6288972;22;20212;-91
2021/07/27 12:10:17;;;;;;;4.90;2.50;;;;;;;;;;6288729;22;20189;-88
2021/07/27 12:13:22;;;;;;;5.22;2.30;;;;;;;;;;6272492;22;20237;-92
2021/07/27 12:16:28;;;;;;;3.33;2.53;;;;;;;;;;6289670;22;20180;-88
2021/07/27 12:19:34;;;;;;;5.00;2.25;;;;;;;;;;6275094;22;20172;-90
2021/07/27 12:22:41;;;;;;;4.20;2.42;;;;;;;;;;6291656;22;20197;-88
2021/07/27 12:25:46;;;;;;;4.25;2.30;;;;;;;;;;6276263;22;20169;-90
2021/07/27 12:28:52;;;;;;;4.10;2.28;;;;;;;;;;6291224;22;20184;-91
2021/07/27 12:31:58;;;;;;;3.33;2.10;;;;;;;;;;6294196;22;20165;-92
2021/07/27 12:35:04;;;;;;;2.83;2.20;;;;;;;;;;6295509;22;20386;-91
2021/07/27 12:38:11;;;;;;;5.50;2.60;;;;;;;;;;6291663;22;20165;-89
2021/07/27 12:41:17;;;;;;;6.43;2.50;;;;;;;;;;6294267;22;20165;-88
2021/07/27 12:44:22;;;;;;;3.97;2.40;;;;;;;;;;6295133;22;20261;-91
2021/07/27 12:47:28;;;;;;;3.63;2.85;;;;;;;;;;6292274;22;20216;-90
2021/07/27 12:50:33;;;;;;;2.88;2.22;;;;;;;;;;6274022;22;20164;-89
2021/07/27 12:53:40;;;;;;;4.65;2.60;;;;;;;;;;6272921;22;20161;-89
2021/07/27 12:56:45;;;;;;;5.78;2.50;;;;;;;;;;6291912;22;20223;-91
2021/07/27 12:59:59;;;;;;;3.85;2.42;;;;;;;;;;6294177;22;20188;-90
2021/07/27 13:03:05;;;;;;;5.85;2.70;;;;;;;;;;6297145;22;20192;-90
2021/07/27 13:12:52;;;;;;;3.83;2.15;;;;;;;;;;6276352;22;20169;-89
2021/07/27 13:16:01;;;;;;;5.05;2.20;;;;;;;;;;6292648;22;20165;-92
2021/07/27 13:22:36;;;;;;;5.50;2.35;;;;;;;;;;6279347;22;20193;-88
2021/07/27 13:25:44;;;;;;;3.67;2.65;;;;;;;;;;6292677;22;20182;-90
2021/07/27 13:28:50;;;;;;;3.38;2.38;;;;;;;;;;6273624;22;20169;-90
2021/07/27 13:31:55;;;;;;;5.00;2.70;;;;;;;;;;6292291;22;20165;-90
2021/07/27 13:35:01;;;;;;;4.18;2.10;;;;;;;;;;6275737;22;20240;-90
2021/07/27 13:38:10;;;;;;;3.67;2.53;;;;;;;;;;6292563;22;20218;-90
2021/07/27 13:41:17;;;;;;;3.67;2.67;;;;;;;;;;6291432;22;20188;-90
2021/07/27 13:44:22;;;;;;;5.72;2.50;;;;;;;;;;6294065;22;20269;-91
2021/07/27 13:47:28;;;;;;;2.45;2.10;;;;;;;;;;6275004;22;20172;-91
2021/07/27 13:50:34;;;;;;;4.97;2.53;;;;;;;;;;6275043;22;20713;-89
2021/07/27 13:53:39;;;;;;;4.70;2.40;;;;;;;;;;6273381;22;20168;-90
2021/07/27 13:56:46;;;;;;;3.00;2.20;;;;;;;;;;6291894;22;20152;-88
2021/07/27 13:59:50;;;;;;;4.00;2.65;;;;;;;;;;6290097;22;20169;-91
2021/07/27 14:02:56;;;;;;;4.85;2.83;;;;;;;;;;6290343;22;20177;-89
2021/07/27 14:06:02;;;;;;;8.55;3.05;;;;;;;;;;6293501;22;20674;-90
2021/07/27 14:09:08;;;;;;;5.18;2.78;;;;;;;;;;6292645;22;20161;-90
2021/07/27 14:12:15;;;;;;;3.83;2.35;;;;;;;;;;6273098;22;20169;-89
2021/07/27 14:15:21;;;;;;;3.47;2.50;;;;;;;;;;6291069;22;20208;-91
2021/07/27 14:18:27;;;;;;;15.50;3.63;;;;;;;;;;6291448;22;20169;-89
2021/07/27 14:21:32;;;;;;;7.28;3.20;;;;;;;;;;6292368;22;20166;-90
2021/07/27 14:24:37;;;;;;;3.47;2.50;;;;;;;;;;6272984;22;20193;-90
2021/07/27 14:27:44;;;;;;;4.63;2.58;;;;;;;;;;6290466;22;20169;-88
2021/07/27 14:30:50;;;;;;;4.13;2.72;;;;;;;;;;6288755;22;20165;-89
2021/07/27 14:33:56;;;;;;;10.38;2.88;;;;;;;;;;6268493;22;20173;-88
2021/07/27 14:37:04;;;;;;;9.20;2.97;;;;;;;;;;6288301;22;20213;-91
2021/07/27 14:40:10;;;;;;;4.95;2.85;;;;;;;;;;6288863;22;20165;-89
2021/07/27 14:43:16;;;;;;;5.80;2.80;;;;;;;;;;6285257;22;20192;-90
2021/07/27 14:46:21;;;;;;;3.80;2.90;;;;;;;;;;6271168;22;20181;-89
2021/07/27 14:49:26;;;;;;;4.30;2.53;;;;;;;;;;6285273;22;20170;-91
2021/07/27 14:52:35;;;;;;;4.03;2.80;;;;;;;;;;6286481;22;20190;-91
2021/07/27 14:55:40;;;;;;;7.00;3.10;;;;;;;;;;6287463;22;20169;-91
2021/07/27 14:58:46;;;;;;;4.15;2.67;;;;;;;;;;6284773;22;20255;-90
2021/07/27 15:01:51;;;;;;;3.75;2.78;;;;;;;;;;6285435;22;20196;-91
2021/07/27 15:05:00;;;;;;;3.75;2.63;;;;;;;;;;6283589;22;20181;-89
2021/07/27 15:08:06;;;;;;;10.07;4.93;;;;;;;;;;6270184;22;20166;-88
2021/07/27 15:11:11;;;;;;;4.88;2.78;;;;;;;;;;6288591;22;20165;-90
2021/07/27 15:14:17;;;;;;;5.47;2.95;;;;;;;;;;6288763;22;20174;-87
2021/07/27 15:17:22;;;;;;;4.32;2.80;;;;;;;;;;6288146;22;20166;-89
2021/07/27 15:20:29;;;;;;;4.07;2.53;;;;;;;;;;6267552;22;20166;-91
2021/07/27 15:23:34;;;;;;;4.00;2.80;;;;;;;;;;6286878;22;20224;-90
2021/07/27 15:26:42;;;;;;;4.05;2.70;;;;;;;;;;6287525;22;20220;-89
2021/07/27 15:29:48;;;;;;;3.88;2.50;;;;;;;;;;6285147;22;20189;-90
2021/07/27 15:32:53;;;;;;;4.85;2.78;;;;;;;;;;6286274;22;20166;-90
2021/07/27 15:35:59;;;;;;;5.03;3.20;;;;;;;;;;6286279;22;20178;-90
2021/07/27 15:39:05;;;;;;;3.65;2.80;;;;;;;;;;6289837;22;20168;-87
2021/07/27 15:42:10;;;;;;;4.35;2.40;;;;;;;;;;6270328;22;20182;-89
2021/07/27 15:45:17;;;;;;;7.32;2.63;;;;;;;;;;6285720;22;20519;-91
2021/07/27 15:48:23;;;;;;;5.43;2.85;;;;;;;;;;6286798;22;20170;-89
2021/07/27 15:51:29;;;;;;;9.27;2.80;;;;;;;;;;6268940;22;20578;-91
2021/07/27 15:54:34;;;;;;;4.28;2.55;;;;;;;;;;6287831;22;20185;-89
2021/07/27 15:57:40;;;;;;;4.60;2.80;;;;;;;;;;6286532;22;20170;-88
2021/07/27 16:00:47;;;;;;;4.28;2.70;;;;;;;;;;6284607;22;20181;-89
2021/07/27 16:07:12;;;;;;;5.55;3.45;;;;;;;;;;6268855;22;20201;-87
2021/07/27 16:10:19;;;;;;;4.05;2.60;;;;;;;;;;6289588;22;20173;-89
2021/07/27 16:13:33;;;;;;;5.63;2.78;;;;;;;;;;6288872;22;20166;-89
2021/07/27 16:16:40;;;;;;;3.83;2.42;;;;;;;;;;6271001;22;20605;-90
2021/07/27 16:19:46;;;;;;;4.30;2.67;;;;;;;;;;6271478;22;20557;-88
2021/07/27 16:22:51;;;;;;;5.07;3.22;;;;;;;;;;6288526;22;20165;-88
2021/07/27 16:25:56;;;;;;;4.65;2.67;;;;;;;;;;6288244;22;20170;-89
2021/07/27 16:29:01;;;;;;;5.25;2.72;;;;;;;;;;6270497;22;20170;-89
2021/07/27 16:32:09;;;;;;;4.53;2.47;;;;;;;;;;6286805;22;20216;-87
2021/07/27 16:35:14;;;;;;;3.72;2.38;;;;;;;;;;6286902;22;20174;-88
2021/07/27 16:38:19;;;;;;;4.43;2.88;;;;;;;;;;6271427;22;20686;-89
2021/07/27 16:41:24;;;;;;;4.03;3.00;;;;;;;;;;6271401;22;20597;-88
2021/07/27 16:44:29;;;;;;;4.32;2.97;;;;;;;;;;6271020;22;20613;-90
2021/07/27 16:47:36;;;;;;;4.28;2.83;;;;;;;;;;6270349;22;20476;-89
2021/07/27 16:50:41;;;;;;;6.13;2.90;;;;;;;;;;6286997;22;20169;-87
2021/07/27 16:53:47;;;;;;;7.07;2.60;;;;;;;;;;6270154;22;20177;-89
2021/07/27 16:57:00;;;;;;;4.95;2.70;;;;;;;;;;6290458;22;20171;-88
2021/07/27 17:00:06;;;;;;;4.75;2.63;;;;;;;;;;6288197;22;20494;-90
2021/07/27 17:03:13;;;;;;;5.38;2.50;;;;;;;;;;6290308;22;20169;-87
2021/07/27 17:06:18;;;;;;;7.55;3.05;;;;;;;;;;6290027;22;20165;-88
2021/07/27 17:09:23;;;;;;;3.40;2.42;;;;;;;;;;6273464;22;20161;-91
2021/07/27 17:12:29;;;;;;;5.72;2.50;;;;;;;;;;6291654;22;20166;-89
2021/07/27 17:15:34;;;;;;;7.20;2.90;;;;;;;;;;6290740;22;20165;-90
2021/07/27 17:18:40;;;;;;;3.78;2.47;;;;;;;;;;6292512;22;20328;-90
2021/07/27 17:21:46;;;;;;;5.90;2.72;;;;;;;;;;6291152;22;20162;-92
2021/07/27 17:24:51;;;;;;;5.25;2.90;;;;;;;;;;6288444;22;20268;-90
2021/07/27 17:27:56;;;;;;;4.72;3.00;;;;;;;;;;6291651;22;20193;-91
2021/07/27 17:31:01;;;;;;;4.68;3.00;;;;;;;;;;6290935;22;20232;-92
2021/07/27 17:34:09;;;;;;;4.85;2.63;;;;;;;;;;6290979;22;20169;-90
2021/07/27 17:37:15;;;;;;;6.63;2.88;;;;;;;;;;6289904;22;20212;-90
2021/07/27 17:40:20;;;;;;;4.40;2.70;;;;;;;;;;6288180;22;20226;-92
2021/07/27 17:43:25;;;;;;;6.82;2.95;;;;;;;;;;6290133;22;20217;-89
2021/07/27 17:46:31;;;;;;;6.72;2.70;;;;;;;;;;6288829;22;20222;-89
2021/07/27 17:49:37;;;;;;;6.00;2.92;;;;;;;;;;6289000;22;21034;-90
2021/07/27 17:52:42;;;;;;;5.22;2.90;;;;;;;;;;6288391;22;20174;-89
2021/07/27 17:55:47;;;;;;;5.68;3.30;;;;;;;;;;6289604;22;20170;-90
2021/07/27 17:58:52;;;;;;;8.27;3.17;;;;;;;;;;6290175;22;20162;-90
2021/07/27 18:01:58;;;;;;;6.75;3.47;;;;;;;;;;6290603;22;20508;-90
2021/07/27 18:05:07;;;;;;;6.43;2.83;;;;;;;;;;6290932;22;20208;-90
2021/07/27 18:08:12;;;;;;;4.20;3.00;;;;;;;;;;6289642;22;20162;-88
2021/07/27 18:11:21;;;;;;;4.63;3.05;;;;;;;;;;6270219;22;20216;-90
2021/07/27 18:14:26;;;;;;;6.13;3.00;;;;;;;;;;6289296;22;20150;-90
2021/07/27 18:17:33;;;;;;;6.10;3.15;;;;;;;;;;6290091;22;20170;-89
2021/07/27 18:20:40;;;;;;;6.43;3.38;;;;;;;;;;6290987;22;20165;-90
2021/07/27 18:23:46;;;;;;;9.00;3.20;;;;;;;;;;6257358;22;20166;-90
2021/07/27 18:26:51;;;;;;;6.15;3.00;;;;;;;;;;6292075;22;20209;-90
2021/07/27 18:29:59;;;;;;;5.35;2.92;;;;;;;;;;6294486;22;20218;-90
2021/07/27 18:33:04;;;;;;;8.18;3.00;;;;;;;;;;6292866;22;20174;-91
2021/07/27 18:36:11;;;;;;;6.65;3.22;;;;;;;;;;6292639;22;20158;-91
2021/07/27 18:39:16;;;;;;;4.72;3.08;;;;;;;;;;6294560;22;20146;-90
2021/07/27 18:42:22;;;;;;;7.10;3.53;;;;;;;;;;6292324;22;20165;-90
2021/07/27 18:45:28;;;;;;;9.57;3.67;;;;;;;;;;6274293;22;20185;-91
2021/07/27 18:48:33;;;;;;;4.65;3.00;;;;;;;;;;6292808;22;20173;-91
2021/07/27 18:51:39;;;;;;;8.57;3.92;;;;;;;;;;6271316;22;20220;-87
2021/07/27 18:54:44;;;;;;;7.53;3.45;;;;;;;;;;6289784;22;20178;-90
2021/07/27 18:57:49;;;;;;;5.00;3.38;;;;;;;;;;6290431;22;20255;-88
2021/07/27 19:00:54;;;;;;;8.82;3.50;;;;;;;;;;6288892;22;20192;-89
2021/07/27 19:04:02;;;;;;;6.38;3.42;;;;;;;;;;6293480;22;20261;-90
2021/07/27 19:07:08;;;;;;;7.95;3.50;;;;;;;;;;6289138;22;20181;-90
2021/07/27 19:10:14;;;;;;;5.38;3.50;;;;;;;;;;6289765;22;20184;-89
2021/07/27 19:13:22;;;;;;;10.90;3.58;;;;;;;;;;6291264;22;20169;-88